sensor_id;sensor_type;location;lat;lon;timestamp;P1;durP1;ratioP1;P2;durP2;ratioP2
53293;SDS011;39181;53.440;5.644;2023-03-13T00:01:11;38.75;;;5.05;;
53293;SDS011;39181;53.440;5.644;2023-03-13T00:03:38;40.55;;;4.93;;
53293;SDS011;39181;53.440;5.644;2023-03-13T00:06:04;33.78;;;4.93;;
53293;SDS011;39181;53.440;5.644;2023-03-13T00:08:30;48.83;;;5.28;;
53293;SDS011;39181;53.440;5.644;2023-03-13T00:10:55;45.70;;;5.20;;
53293;SDS011;39181;53.440;5.644;2023-03-13T00:13:21;35.88;;;5.70;;
53293;SDS011;39181;53.440;5.644;2023-03-13T00:15:47;35.17;;;5.53;;
53293;SDS011;39181;53.440;5.644;2023-03-13T00:18:12;36.95;;;4.38;;
53293;SDS011;39181;53.440;5.644;2023-03-13T00:20:38;35.10;;;4.38;;
53293;SDS011;39181;53.440;5.644;2023-03-13T00:23:04;36.42;;;4.80;;
53293;SDS011;39181;53.440;5.644;2023-03-13T00:25:29;38.03;;;5.55;;
53293;SDS011;39181;53.440;5.644;2023-03-13T00:27:55;30.67;;;5.90;;
53293;SDS011;39181;53.440;5.644;2023-03-13T00:30:21;36.30;;;4.57;;
53293;SDS011;39181;53.440;5.644;2023-03-13T00:32:47;37.15;;;5.03;;
53293;SDS011;39181;53.440;5.644;2023-03-13T00:35:13;38.25;;;7.45;;
53293;SDS011;39181;53.440;5.644;2023-03-13T00:37:39;31.52;;;6.00;;
53293;SDS011;39181;53.440;5.644;2023-03-13T00:40:05;38.42;;;5.72;;
53293;SDS011;39181;53.440;5.644;2023-03-13T00:42:32;38.00;;;5.35;;
53293;SDS011;39181;53.440;5.644;2023-03-13T00:44:58;43.63;;;7.18;;
53293;SDS011;39181;53.440;5.644;2023-03-13T00:47:24;44.08;;;7.55;;
53293;SDS011;39181;53.440;5.644;2023-03-13T00:49:49;40.30;;;5.88;;
53293;SDS011;39181;53.440;5.644;2023-03-13T00:52:15;42.40;;;5.75;;
53293;SDS011;39181;53.440;5.644;2023-03-13T00:54:40;32.83;;;5.78;;
53293;SDS011;39181;53.440;5.644;2023-03-13T00:57:07;33.47;;;5.75;;
53293;SDS011;39181;53.440;5.644;2023-03-13T00:59:32;31.85;;;6.35;;
53293;SDS011;39181;53.440;5.644;2023-03-13T01:01:58;28.90;;;5.63;;
53293;SDS011;39181;53.440;5.644;2023-03-13T01:04:24;31.75;;;6.43;;
53293;SDS011;39181;53.440;5.644;2023-03-13T01:06:49;31.15;;;5.40;;
53293;SDS011;39181;53.440;5.644;2023-03-13T01:09:15;36.42;;;6.38;;
53293;SDS011;39181;53.440;5.644;2023-03-13T01:11:41;40.70;;;5.47;;
53293;SDS011;39181;53.440;5.644;2023-03-13T01:14:09;38.42;;;5.32;;
53293;SDS011;39181;53.440;5.644;2023-03-13T01:16:39;37.05;;;6.03;;
53293;SDS011;39181;53.440;5.644;2023-03-13T01:19:06;35.58;;;5.82;;
53293;SDS011;39181;53.440;5.644;2023-03-13T01:21:34;36.88;;;6.68;;
53293;SDS011;39181;53.440;5.644;2023-03-13T01:24:00;41.63;;;6.15;;
53293;SDS011;39181;53.440;5.644;2023-03-13T01:26:26;42.15;;;6.93;;
53293;SDS011;39181;53.440;5.644;2023-03-13T01:28:52;40.58;;;5.60;;
53293;SDS011;39181;53.440;5.644;2023-03-13T01:31:19;36.17;;;7.15;;
53293;SDS011;39181;53.440;5.644;2023-03-13T01:33:50;38.05;;;5.90;;
53293;SDS011;39181;53.440;5.644;2023-03-13T01:36:18;47.13;;;7.32;;
53293;SDS011;39181;53.440;5.644;2023-03-13T01:38:47;29.85;;;5.95;;
53293;SDS011;39181;53.440;5.644;2023-03-13T01:41:13;46.50;;;7.10;;
53293;SDS011;39181;53.440;5.644;2023-03-13T01:43:39;42.97;;;7.20;;
53293;SDS011;39181;53.440;5.644;2023-03-13T01:46:15;41.72;;;7.07;;
53293;SDS011;39181;53.440;5.644;2023-03-13T01:48:51;35.97;;;7.53;;
53293;SDS011;39181;53.440;5.644;2023-03-13T01:54:00;39.05;;;6.18;;
53293;SDS011;39181;53.440;5.644;2023-03-13T01:56:59;44.00;;;6.70;;
53293;SDS011;39181;53.440;5.644;2023-03-13T02:02:04;31.40;;;6.78;;
53293;SDS011;39181;53.440;5.644;2023-03-13T02:04:35;39.72;;;5.85;;
53293;SDS011;39181;53.440;5.644;2023-03-13T02:07:05;28.40;;;5.30;;
53293;SDS011;39181;53.440;5.644;2023-03-13T02:09:35;32.88;;;6.35;;
53293;SDS011;39181;53.440;5.644;2023-03-13T02:12:06;31.65;;;4.70;;
53293;SDS011;39181;53.440;5.644;2023-03-13T02:14:37;32.28;;;5.75;;
53293;SDS011;39181;53.440;5.644;2023-03-13T02:17:06;27.27;;;6.00;;
53293;SDS011;39181;53.440;5.644;2023-03-13T02:19:35;26.80;;;5.50;;
53293;SDS011;39181;53.440;5.644;2023-03-13T02:24:46;33.72;;;6.88;;
53293;SDS011;39181;53.440;5.644;2023-03-13T02:27:24;30.02;;;5.55;;
53293;SDS011;39181;53.440;5.644;2023-03-13T02:29:50;22.65;;;5.55;;
53293;SDS011;39181;53.440;5.644;2023-03-13T02:32:16;27.48;;;5.10;;
53293;SDS011;39181;53.440;5.644;2023-03-13T02:34:42;26.45;;;5.65;;
53293;SDS011;39181;53.440;5.644;2023-03-13T02:37:08;27.15;;;6.43;;
53293;SDS011;39181;53.440;5.644;2023-03-13T02:39:37;29.40;;;5.65;;
53293;SDS011;39181;53.440;5.644;2023-03-13T02:42:05;17.10;;;4.00;;
53293;SDS011;39181;53.440;5.644;2023-03-13T02:44:36;28.95;;;5.95;;
53293;SDS011;39181;53.440;5.644;2023-03-13T02:47:05;26.48;;;5.32;;
53293;SDS011;39181;53.440;5.644;2023-03-13T02:49:33;23.65;;;4.57;;
53293;SDS011;39181;53.440;5.644;2023-03-13T02:52:01;19.60;;;4.40;;
53293;SDS011;39181;53.440;5.644;2023-03-13T02:54:35;26.58;;;5.75;;
53293;SDS011;39181;53.440;5.644;2023-03-13T02:57:04;18.70;;;5.22;;
53293;SDS011;39181;53.440;5.644;2023-03-13T02:59:30;18.13;;;4.75;;
53293;SDS011;39181;53.440;5.644;2023-03-13T03:01:56;23.45;;;4.75;;
53293;SDS011;39181;53.440;5.644;2023-03-13T03:04:22;20.13;;;4.63;;
53293;SDS011;39181;53.440;5.644;2023-03-13T03:06:50;19.02;;;5.18;;
53293;SDS011;39181;53.440;5.644;2023-03-13T03:09:16;16.73;;;5.03;;
53293;SDS011;39181;53.440;5.644;2023-03-13T03:11:43;17.85;;;4.43;;
53293;SDS011;39181;53.440;5.644;2023-03-13T03:14:09;27.52;;;5.25;;
53293;SDS011;39181;53.440;5.644;2023-03-13T03:16:36;16.23;;;5.05;;
53293;SDS011;39181;53.440;5.644;2023-03-13T03:19:02;19.23;;;5.32;;
53293;SDS011;39181;53.440;5.644;2023-03-13T03:21:30;21.08;;;5.43;;
53293;SDS011;39181;53.440;5.644;2023-03-13T03:23:56;24.55;;;5.70;;
53293;SDS011;39181;53.440;5.644;2023-03-13T03:26:22;22.45;;;5.10;;
53293;SDS011;39181;53.440;5.644;2023-03-13T03:28:47;13.23;;;3.63;;
53293;SDS011;39181;53.440;5.644;2023-03-13T03:31:13;30.33;;;4.47;;
53293;SDS011;39181;53.440;5.644;2023-03-13T03:33:40;21.83;;;4.13;;
53293;SDS011;39181;53.440;5.644;2023-03-13T03:36:07;25.40;;;3.50;;
53293;SDS011;39181;53.440;5.644;2023-03-13T03:38:35;18.00;;;3.40;;
53293;SDS011;39181;53.440;5.644;2023-03-13T03:41:02;18.08;;;2.72;;
53293;SDS011;39181;53.440;5.644;2023-03-13T03:43:28;16.48;;;2.50;;
53293;SDS011;39181;53.440;5.644;2023-03-13T03:45:53;13.68;;;2.53;;
53293;SDS011;39181;53.440;5.644;2023-03-13T03:48:19;11.30;;;3.35;;
53293;SDS011;39181;53.440;5.644;2023-03-13T03:50:44;14.73;;;4.13;;
53293;SDS011;39181;53.440;5.644;2023-03-13T03:53:10;17.08;;;4.32;;
53293;SDS011;39181;53.440;5.644;2023-03-13T03:55:36;19.50;;;4.10;;
53293;SDS011;39181;53.440;5.644;2023-03-13T03:58:01;21.42;;;4.15;;
53293;SDS011;39181;53.440;5.644;2023-03-13T04:00:27;16.45;;;4.60;;
53293;SDS011;39181;53.440;5.644;2023-03-13T04:02:53;22.88;;;4.60;;
53293;SDS011;39181;53.440;5.644;2023-03-13T04:05:20;16.73;;;5.07;;
53293;SDS011;39181;53.440;5.644;2023-03-13T04:07:46;30.05;;;5.47;;
53293;SDS011;39181;53.440;5.644;2023-03-13T04:10:11;31.65;;;6.30;;
53293;SDS011;39181;53.440;5.644;2023-03-13T04:12:37;27.95;;;5.05;;
53293;SDS011;39181;53.440;5.644;2023-03-13T04:15:03;24.05;;;5.95;;
53293;SDS011;39181;53.440;5.644;2023-03-13T04:17:29;42.13;;;7.75;;
53293;SDS011;39181;53.440;5.644;2023-03-13T04:19:55;41.30;;;7.63;;
53293;SDS011;39181;53.440;5.644;2023-03-13T04:22:20;34.30;;;6.65;;
53293;SDS011;39181;53.440;5.644;2023-03-13T04:24:46;36.00;;;5.25;;
53293;SDS011;39181;53.440;5.644;2023-03-13T04:27:11;34.90;;;4.88;;
53293;SDS011;39181;53.440;5.644;2023-03-13T04:29:37;29.38;;;6.18;;
53293;SDS011;39181;53.440;5.644;2023-03-13T04:32:03;39.10;;;6.05;;
53293;SDS011;39181;53.440;5.644;2023-03-13T04:34:29;38.55;;;5.53;;
53293;SDS011;39181;53.440;5.644;2023-03-13T04:36:54;35.95;;;5.63;;
53293;SDS011;39181;53.440;5.644;2023-03-13T04:39:20;33.65;;;4.65;;
53293;SDS011;39181;53.440;5.644;2023-03-13T04:41:50;34.80;;;5.55;;
53293;SDS011;39181;53.440;5.644;2023-03-13T04:44:16;50.65;;;7.28;;
53293;SDS011;39181;53.440;5.644;2023-03-13T04:46:42;27.35;;;5.38;;
53293;SDS011;39181;53.440;5.644;2023-03-13T04:49:07;52.03;;;6.32;;
53293;SDS011;39181;53.440;5.644;2023-03-13T04:51:33;41.95;;;4.93;;
53293;SDS011;39181;53.440;5.644;2023-03-13T04:53:58;39.97;;;6.95;;
53293;SDS011;39181;53.440;5.644;2023-03-13T04:56:24;33.72;;;5.40;;
53293;SDS011;39181;53.440;5.644;2023-03-13T04:58:51;34.50;;;5.38;;
53293;SDS011;39181;53.440;5.644;2023-03-13T05:01:17;35.97;;;4.97;;
53293;SDS011;39181;53.440;5.644;2023-03-13T05:03:43;42.05;;;5.97;;
53293;SDS011;39181;53.440;5.644;2023-03-13T05:06:09;29.77;;;5.63;;
53293;SDS011;39181;53.440;5.644;2023-03-13T05:08:35;42.30;;;5.57;;
53293;SDS011;39181;53.440;5.644;2023-03-13T05:11:01;40.30;;;6.57;;
53293;SDS011;39181;53.440;5.644;2023-03-13T05:13:27;40.25;;;6.25;;
53293;SDS011;39181;53.440;5.644;2023-03-13T05:15:53;26.90;;;5.15;;
53293;SDS011;39181;53.440;5.644;2023-03-13T05:18:18;36.63;;;5.25;;
53293;SDS011;39181;53.440;5.644;2023-03-13T05:20:44;37.28;;;4.82;;
53293;SDS011;39181;53.440;5.644;2023-03-13T05:23:09;37.28;;;6.30;;
53293;SDS011;39181;53.440;5.644;2023-03-13T05:25:35;31.48;;;4.40;;
53293;SDS011;39181;53.440;5.644;2023-03-13T05:28:01;23.90;;;3.85;;
53293;SDS011;39181;53.440;5.644;2023-03-13T05:30:27;26.75;;;4.10;;
53293;SDS011;39181;53.440;5.644;2023-03-13T05:32:52;35.65;;;5.55;;
53293;SDS011;39181;53.440;5.644;2023-03-13T05:35:18;33.63;;;4.85;;
53293;SDS011;39181;53.440;5.644;2023-03-13T05:37:43;31.67;;;4.55;;
53293;SDS011;39181;53.440;5.644;2023-03-13T05:40:10;33.72;;;4.80;;
53293;SDS011;39181;53.440;5.644;2023-03-13T05:42:36;29.95;;;4.82;;
53293;SDS011;39181;53.440;5.644;2023-03-13T05:45:02;37.90;;;4.38;;
53293;SDS011;39181;53.440;5.644;2023-03-13T05:47:28;39.55;;;5.93;;
53293;SDS011;39181;53.440;5.644;2023-03-13T05:49:53;35.95;;;5.50;;
53293;SDS011;39181;53.440;5.644;2023-03-13T05:52:19;40.42;;;5.45;;
53293;SDS011;39181;53.440;5.644;2023-03-13T05:54:44;29.95;;;4.32;;
53293;SDS011;39181;53.440;5.644;2023-03-13T05:57:10;28.75;;;5.45;;
53293;SDS011;39181;53.440;5.644;2023-03-13T05:59:35;41.30;;;6.38;;
53293;SDS011;39181;53.440;5.644;2023-03-13T06:02:01;27.48;;;4.57;;
53293;SDS011;39181;53.440;5.644;2023-03-13T06:04:27;46.65;;;6.85;;
53293;SDS011;39181;53.440;5.644;2023-03-13T06:06:52;34.13;;;4.22;;
53293;SDS011;39181;53.440;5.644;2023-03-13T06:09:18;36.90;;;5.45;;
53293;SDS011;39181;53.440;5.644;2023-03-13T06:11:44;45.65;;;6.07;;
53293;SDS011;39181;53.440;5.644;2023-03-13T06:14:09;44.15;;;5.97;;
53293;SDS011;39181;53.440;5.644;2023-03-13T06:16:35;43.85;;;6.43;;
53293;SDS011;39181;53.440;5.644;2023-03-13T06:19:01;38.65;;;6.72;;
53293;SDS011;39181;53.440;5.644;2023-03-13T06:21:26;33.25;;;4.93;;
53293;SDS011;39181;53.440;5.644;2023-03-13T06:23:53;45.28;;;6.93;;
53293;SDS011;39181;53.440;5.644;2023-03-13T06:26:19;34.22;;;5.65;;
53293;SDS011;39181;53.440;5.644;2023-03-13T06:28:45;35.30;;;5.57;;
53293;SDS011;39181;53.440;5.644;2023-03-13T06:31:12;34.35;;;5.65;;
53293;SDS011;39181;53.440;5.644;2023-03-13T06:33:38;45.42;;;6.35;;
53293;SDS011;39181;53.440;5.644;2023-03-13T06:36:03;36.13;;;5.05;;
53293;SDS011;39181;53.440;5.644;2023-03-13T06:38:30;45.10;;;6.07;;
53293;SDS011;39181;53.440;5.644;2023-03-13T06:40:57;45.00;;;5.90;;
53293;SDS011;39181;53.440;5.644;2023-03-13T06:43:24;43.17;;;6.78;;
53293;SDS011;39181;53.440;5.644;2023-03-13T06:45:49;37.72;;;5.63;;
53293;SDS011;39181;53.440;5.644;2023-03-13T06:48:15;38.30;;;6.05;;
53293;SDS011;39181;53.440;5.644;2023-03-13T06:50:41;41.92;;;5.57;;
53293;SDS011;39181;53.440;5.644;2023-03-13T06:53:07;40.55;;;6.18;;
53293;SDS011;39181;53.440;5.644;2023-03-13T06:58:05;38.47;;;7.13;;
53293;SDS011;39181;53.440;5.644;2023-03-13T07:00:30;44.92;;;6.13;;
53293;SDS011;39181;53.440;5.644;2023-03-13T07:02:56;34.75;;;6.70;;
53293;SDS011;39181;53.440;5.644;2023-03-13T07:05:21;39.67;;;5.53;;
53293;SDS011;39181;53.440;5.644;2023-03-13T07:07:47;46.33;;;6.05;;
53293;SDS011;39181;53.440;5.644;2023-03-13T07:10:12;46.63;;;6.13;;
53293;SDS011;39181;53.440;5.644;2023-03-13T07:12:38;30.00;;;5.43;;
53293;SDS011;39181;53.440;5.644;2023-03-13T07:15:04;39.55;;;7.05;;
53293;SDS011;39181;53.440;5.644;2023-03-13T07:17:30;36.15;;;5.75;;
53293;SDS011;39181;53.440;5.644;2023-03-13T07:19:56;49.58;;;7.57;;
53293;SDS011;39181;53.440;5.644;2023-03-13T07:22:21;34.00;;;6.25;;
53293;SDS011;39181;53.440;5.644;2023-03-13T07:24:47;46.53;;;6.57;;
53293;SDS011;39181;53.440;5.644;2023-03-13T07:27:13;42.72;;;7.82;;
53293;SDS011;39181;53.440;5.644;2023-03-13T07:29:41;46.17;;;6.22;;
53293;SDS011;39181;53.440;5.644;2023-03-13T07:32:07;35.22;;;5.18;;
53293;SDS011;39181;53.440;5.644;2023-03-13T07:34:32;37.88;;;5.88;;
53293;SDS011;39181;53.440;5.644;2023-03-13T07:36:58;45.50;;;6.25;;
53293;SDS011;39181;53.440;5.644;2023-03-13T07:39:23;35.13;;;6.40;;
53293;SDS011;39181;53.440;5.644;2023-03-13T07:41:49;37.40;;;6.93;;
53293;SDS011;39181;53.440;5.644;2023-03-13T07:44:14;47.92;;;8.65;;
53293;SDS011;39181;53.440;5.644;2023-03-13T07:46:40;44.08;;;5.85;;
53293;SDS011;39181;53.440;5.644;2023-03-13T07:49:06;39.30;;;6.47;;
53293;SDS011;39181;53.440;5.644;2023-03-13T07:51:31;35.58;;;5.63;;
53293;SDS011;39181;53.440;5.644;2023-03-13T07:53:57;34.60;;;5.38;;
53293;SDS011;39181;53.440;5.644;2023-03-13T07:56:22;38.13;;;5.57;;
53293;SDS011;39181;53.440;5.644;2023-03-13T07:58:49;43.97;;;6.25;;
53293;SDS011;39181;53.440;5.644;2023-03-13T08:03:48;46.15;;;6.20;;
53293;SDS011;39181;53.440;5.644;2023-03-13T08:06:16;46.33;;;6.72;;
53293;SDS011;39181;53.440;5.644;2023-03-13T08:08:44;45.58;;;6.30;;
53293;SDS011;39181;53.440;5.644;2023-03-13T08:11:11;46.45;;;5.82;;
53293;SDS011;39181;53.440;5.644;2023-03-13T08:13:42;32.87;;;5.17;;
53293;SDS011;39181;53.440;5.644;2023-03-13T08:16:09;34.13;;;6.32;;
53293;SDS011;39181;53.440;5.644;2023-03-13T08:18:42;42.78;;;7.47;;
53293;SDS011;39181;53.440;5.644;2023-03-13T08:21:13;43.83;;;6.25;;
53293;SDS011;39181;53.440;5.644;2023-03-13T08:23:57;33.70;;;5.20;;
53293;SDS011;39181;53.440;5.644;2023-03-13T08:26:26;30.20;;;5.53;;
53293;SDS011;39181;53.440;5.644;2023-03-13T08:28:54;35.22;;;6.03;;
53293;SDS011;39181;53.440;5.644;2023-03-13T08:31:25;41.25;;;5.47;;
53293;SDS011;39181;53.440;5.644;2023-03-13T08:33:52;30.33;;;5.07;;
53293;SDS011;39181;53.440;5.644;2023-03-13T08:36:20;31.13;;;5.30;;
53293;SDS011;39181;53.440;5.644;2023-03-13T08:38:49;37.13;;;5.97;;
53293;SDS011;39181;53.440;5.644;2023-03-13T08:41:19;43.97;;;6.05;;
53293;SDS011;39181;53.440;5.644;2023-03-13T08:43:46;35.85;;;6.07;;
53293;SDS011;39181;53.440;5.644;2023-03-13T08:46:13;36.67;;;6.13;;
53293;SDS011;39181;53.440;5.644;2023-03-13T08:48:39;38.75;;;5.55;;
53293;SDS011;39181;53.440;5.644;2023-03-13T08:51:06;41.40;;;5.85;;
53293;SDS011;39181;53.440;5.644;2023-03-13T08:53:34;41.78;;;5.80;;
53293;SDS011;39181;53.440;5.644;2023-03-13T08:56:01;28.75;;;4.80;;
53293;SDS011;39181;53.440;5.644;2023-03-13T08:58:28;30.77;;;4.65;;
53293;SDS011;39181;53.440;5.644;2023-03-13T09:00:54;27.55;;;5.75;;
53293;SDS011;39181;53.440;5.644;2023-03-13T09:03:25;39.20;;;5.75;;
53293;SDS011;39181;53.440;5.644;2023-03-13T09:05:50;30.77;;;4.85;;
53293;SDS011;39181;53.440;5.644;2023-03-13T09:08:16;38.65;;;5.32;;
53293;SDS011;39181;53.440;5.644;2023-03-13T09:10:41;37.53;;;5.68;;
53293;SDS011;39181;53.440;5.644;2023-03-13T09:13:07;28.10;;;4.28;;
53293;SDS011;39181;53.440;5.644;2023-03-13T09:15:32;27.20;;;4.90;;
53293;SDS011;39181;53.440;5.644;2023-03-13T09:17:58;35.45;;;5.00;;
53293;SDS011;39181;53.440;5.644;2023-03-13T09:20:24;34.50;;;4.72;;
53293;SDS011;39181;53.440;5.644;2023-03-13T09:22:50;30.85;;;6.30;;
53293;SDS011;39181;53.440;5.644;2023-03-13T09:25:15;34.13;;;5.07;;
53293;SDS011;39181;53.440;5.644;2023-03-13T09:27:41;31.63;;;5.22;;
53293;SDS011;39181;53.440;5.644;2023-03-13T09:30:07;33.40;;;6.10;;
53293;SDS011;39181;53.440;5.644;2023-03-13T09:32:41;39.50;;;6.70;;
53293;SDS011;39181;53.440;5.644;2023-03-13T09:35:06;38.78;;;7.40;;
53293;SDS011;39181;53.440;5.644;2023-03-13T09:37:32;33.42;;;5.47;;
53293;SDS011;39181;53.440;5.644;2023-03-13T09:39:58;30.73;;;6.47;;
53293;SDS011;39181;53.440;5.644;2023-03-13T09:45:29;46.97;;;6.82;;
53293;SDS011;39181;53.440;5.644;2023-03-13T09:48:04;33.42;;;5.85;;
53293;SDS011;39181;53.440;5.644;2023-03-13T09:51:02;29.35;;;5.28;;
53293;SDS011;39181;53.440;5.644;2023-03-13T09:53:42;36.20;;;6.47;;
53293;SDS011;39181;53.440;5.644;2023-03-13T09:56:25;27.85;;;5.85;;
53293;SDS011;39181;53.440;5.644;2023-03-13T09:58:57;23.35;;;4.70;;
53293;SDS011;39181;53.440;5.644;2023-03-13T10:01:29;32.63;;;4.63;;
53293;SDS011;39181;53.440;5.644;2023-03-13T10:04:40;37.05;;;5.38;;
53293;SDS011;39181;53.440;5.644;2023-03-13T10:07:09;39.25;;;6.57;;
53293;SDS011;39181;53.440;5.644;2023-03-13T10:09:35;37.17;;;5.72;;
53293;SDS011;39181;53.440;5.644;2023-03-13T10:12:20;38.25;;;5.35;;
53293;SDS011;39181;53.440;5.644;2023-03-13T10:17:37;31.90;;;6.30;;
53293;SDS011;39181;53.440;5.644;2023-03-13T10:22:41;37.88;;;6.13;;
53293;SDS011;39181;53.440;5.644;2023-03-13T10:25:29;36.28;;;7.22;;
53293;SDS011;39181;53.440;5.644;2023-03-13T10:27:58;43.20;;;7.07;;
53293;SDS011;39181;53.440;5.644;2023-03-13T10:30:28;40.80;;;5.63;;
53293;SDS011;39181;53.440;5.644;2023-03-13T10:32:59;41.88;;;6.30;;
53293;SDS011;39181;53.440;5.644;2023-03-13T10:35:36;43.38;;;7.32;;
53293;SDS011;39181;53.440;5.644;2023-03-13T10:38:04;38.17;;;7.10;;
53293;SDS011;39181;53.440;5.644;2023-03-13T10:40:34;43.30;;;8.20;;
53293;SDS011;39181;53.440;5.644;2023-03-13T10:43:05;42.45;;;7.00;;
53293;SDS011;39181;53.440;5.644;2023-03-13T10:45:42;32.83;;;5.50;;
53293;SDS011;39181;53.440;5.644;2023-03-13T10:50:40;40.28;;;6.55;;
53293;SDS011;39181;53.440;5.644;2023-03-13T10:53:22;30.60;;;6.15;;
53293;SDS011;39181;53.440;5.644;2023-03-13T10:56:09;39.47;;;5.55;;
53293;SDS011;39181;53.440;5.644;2023-03-13T10:58:42;39.85;;;6.43;;
53293;SDS011;39181;53.440;5.644;2023-03-13T11:03:42;35.33;;;5.55;;
53293;SDS011;39181;53.440;5.644;2023-03-13T11:09:12;37.65;;;6.03;;
53293;SDS011;39181;53.440;5.644;2023-03-13T11:11:49;34.33;;;5.97;;
53293;SDS011;39181;53.440;5.644;2023-03-13T11:14:21;37.10;;;6.32;;
53293;SDS011;39181;53.440;5.644;2023-03-13T11:19:57;34.95;;;5.35;;
53293;SDS011;39181;53.440;5.644;2023-03-13T11:25:21;46.97;;;7.43;;
53293;SDS011;39181;53.440;5.644;2023-03-13T11:30:48;35.90;;;6.90;;
53293;SDS011;39181;53.440;5.644;2023-03-13T11:33:35;47.83;;;7.63;;
53293;SDS011;39181;53.440;5.644;2023-03-13T11:36:20;42.30;;;7.20;;
53293;SDS011;39181;53.440;5.644;2023-03-13T11:39:01;39.30;;;6.45;;
53293;SDS011;39181;53.440;5.644;2023-03-13T11:41:30;37.38;;;5.95;;
53293;SDS011;39181;53.440;5.644;2023-03-13T11:44:26;44.92;;;6.60;;
53293;SDS011;39181;53.440;5.644;2023-03-13T11:49:46;44.42;;;5.55;;
53293;SDS011;39181;53.440;5.644;2023-03-13T11:52:37;39.60;;;7.10;;
53293;SDS011;39181;53.440;5.644;2023-03-13T11:55:43;39.75;;;7.22;;
53293;SDS011;39181;53.440;5.644;2023-03-13T11:58:30;37.42;;;5.97;;
53293;SDS011;39181;53.440;5.644;2023-03-13T12:01:03;37.85;;;6.38;;
53293;SDS011;39181;53.440;5.644;2023-03-13T12:06:45;44.70;;;7.40;;
53293;SDS011;39181;53.440;5.644;2023-03-13T12:09:42;34.40;;;6.93;;
53293;SDS011;39181;53.440;5.644;2023-03-13T12:12:17;47.28;;;6.57;;
53293;SDS011;39181;53.440;5.644;2023-03-13T12:25:36;52.00;;;6.40;;
53293;SDS011;39181;53.440;5.644;2023-03-13T12:30:44;52.72;;;7.85;;
53293;SDS011;39181;53.440;5.644;2023-03-13T12:36:32;48.20;;;7.10;;
53293;SDS011;39181;53.440;5.644;2023-03-13T12:41:42;42.17;;;6.88;;
53293;SDS011;39181;53.440;5.644;2023-03-13T12:44:13;48.35;;;7.45;;
53293;SDS011;39181;53.440;5.644;2023-03-13T12:52:44;44.03;;;6.63;;
53293;SDS011;39181;53.440;5.644;2023-03-13T13:00:29;52.73;;;6.73;;
53293;SDS011;39181;53.440;5.644;2023-03-13T13:06:05;50.60;;;7.80;;
53293;SDS011;39181;53.440;5.644;2023-03-13T13:13:59;40.30;;;7.93;;
53293;SDS011;39181;53.440;5.644;2023-03-13T13:16:25;54.30;;;8.05;;
53293;SDS011;39181;53.440;5.644;2023-03-13T13:18:52;56.65;;;8.05;;
53293;SDS011;39181;53.440;5.644;2023-03-13T13:21:19;53.47;;;7.57;;
53293;SDS011;39181;53.440;5.644;2023-03-13T13:23:47;37.13;;;5.90;;
53293;SDS011;39181;53.440;5.644;2023-03-13T13:36:54;47.30;;;7.50;;
53293;SDS011;39181;53.440;5.644;2023-03-13T13:39:45;58.50;;;8.95;;
53293;SDS011;39181;53.440;5.644;2023-03-13T13:47:39;50.03;;;6.85;;
53293;SDS011;39181;53.440;5.644;2023-03-13T13:52:46;50.75;;;7.55;;
53293;SDS011;39181;53.440;5.644;2023-03-13T14:03:25;46.17;;;7.68;;
53293;SDS011;39181;53.440;5.644;2023-03-13T14:05:53;35.65;;;6.90;;
53293;SDS011;39181;53.440;5.644;2023-03-13T14:08:24;53.55;;;8.70;;
53293;SDS011;39181;53.440;5.644;2023-03-13T14:13:33;47.45;;;7.88;;
53293;SDS011;39181;53.440;5.644;2023-03-13T14:16:09;47.85;;;7.78;;
53293;SDS011;39181;53.440;5.644;2023-03-13T14:18:43;51.17;;;8.43;;
53293;SDS011;39181;53.440;5.644;2023-03-13T14:21:08;45.00;;;6.97;;
53293;SDS011;39181;53.440;5.644;2023-03-13T14:23:42;53.08;;;8.73;;
53293;SDS011;39181;53.440;5.644;2023-03-13T14:29:06;46.88;;;7.85;;
53293;SDS011;39181;53.440;5.644;2023-03-13T14:31:32;49.63;;;8.23;;
53293;SDS011;39181;53.440;5.644;2023-03-13T14:33:59;44.95;;;8.52;;
53293;SDS011;39181;53.440;5.644;2023-03-13T14:36:27;47.25;;;8.35;;
53293;SDS011;39181;53.440;5.644;2023-03-13T14:38:57;54.40;;;7.95;;
53293;SDS011;39181;53.440;5.644;2023-03-13T14:41:40;57.35;;;8.52;;
53293;SDS011;39181;53.440;5.644;2023-03-13T14:44:14;41.53;;;8.35;;
53293;SDS011;39181;53.440;5.644;2023-03-13T14:46:47;47.10;;;7.28;;
53293;SDS011;39181;53.440;5.644;2023-03-13T14:49:20;56.00;;;8.55;;
53293;SDS011;39181;53.440;5.644;2023-03-13T14:51:56;35.78;;;7.00;;
53293;SDS011;39181;53.440;5.644;2023-03-13T14:54:29;58.00;;;8.32;;
53293;SDS011;39181;53.440;5.644;2023-03-13T14:57:04;52.47;;;7.85;;
53293;SDS011;39181;53.440;5.644;2023-03-13T14:59:37;53.83;;;8.75;;
53293;SDS011;39181;53.440;5.644;2023-03-13T15:02:13;39.38;;;7.00;;
53293;SDS011;39181;53.440;5.644;2023-03-13T15:04:59;62.17;;;10.73;;
53293;SDS011;39181;53.440;5.644;2023-03-13T15:07:28;48.83;;;7.25;;
53293;SDS011;39181;53.440;5.644;2023-03-13T15:10:19;52.00;;;7.47;;
53293;SDS011;39181;53.440;5.644;2023-03-13T15:13:21;46.80;;;7.78;;
53293;SDS011;39181;53.440;5.644;2023-03-13T15:15:49;53.83;;;7.97;;
53293;SDS011;39181;53.440;5.644;2023-03-13T15:18:22;54.03;;;8.30;;
53293;SDS011;39181;53.440;5.644;2023-03-13T15:20:50;53.08;;;8.77;;
53293;SDS011;39181;53.440;5.644;2023-03-13T15:23:17;54.60;;;8.57;;
53293;SDS011;39181;53.440;5.644;2023-03-13T15:25:43;51.97;;;7.93;;
53293;SDS011;39181;53.440;5.644;2023-03-13T15:28:13;55.40;;;9.85;;
53293;SDS011;39181;53.440;5.644;2023-03-13T15:30:41;56.90;;;9.82;;
53293;SDS011;39181;53.440;5.644;2023-03-13T15:33:12;55.25;;;7.50;;
53293;SDS011;39181;53.440;5.644;2023-03-13T15:35:40;60.20;;;8.40;;
53293;SDS011;39181;53.440;5.644;2023-03-13T15:38:08;55.80;;;8.15;;
53293;SDS011;39181;53.440;5.644;2023-03-13T15:40:42;50.33;;;7.53;;
53293;SDS011;39181;53.440;5.644;2023-03-13T15:43:09;50.63;;;8.45;;
53293;SDS011;39181;53.440;5.644;2023-03-13T15:45:36;62.55;;;8.68;;
53293;SDS011;39181;53.440;5.644;2023-03-13T15:48:14;63.53;;;8.35;;
53293;SDS011;39181;53.440;5.644;2023-03-13T15:53:21;64.53;;;7.30;;
53293;SDS011;39181;53.440;5.644;2023-03-13T15:55:49;54.40;;;9.88;;
53293;SDS011;39181;53.440;5.644;2023-03-13T15:58:17;47.38;;;8.70;;
53293;SDS011;39181;53.440;5.644;2023-03-13T16:00:43;52.38;;;7.85;;
53293;SDS011;39181;53.440;5.644;2023-03-13T16:03:22;48.00;;;8.57;;
53293;SDS011;39181;53.440;5.644;2023-03-13T16:05:50;61.70;;;8.90;;
53293;SDS011;39181;53.440;5.644;2023-03-13T16:08:17;54.08;;;8.40;;
53293;SDS011;39181;53.440;5.644;2023-03-13T16:10:45;51.53;;;9.23;;
53293;SDS011;39181;53.440;5.644;2023-03-13T16:13:11;49.90;;;8.63;;
53293;SDS011;39181;53.440;5.644;2023-03-13T16:15:37;58.95;;;8.75;;
53293;SDS011;39181;53.440;5.644;2023-03-13T16:18:03;44.70;;;7.78;;
53293;SDS011;39181;53.440;5.644;2023-03-13T16:20:30;49.65;;;9.57;;
53293;SDS011;39181;53.440;5.644;2023-03-13T16:22:57;58.03;;;8.02;;
53293;SDS011;39181;53.440;5.644;2023-03-13T16:25:23;54.67;;;8.45;;
53293;SDS011;39181;53.440;5.644;2023-03-13T16:27:49;55.47;;;8.40;;
53293;SDS011;39181;53.440;5.644;2023-03-13T16:32:45;52.80;;;7.70;;
53293;SDS011;39181;53.440;5.644;2023-03-13T16:35:11;49.40;;;8.68;;
53293;SDS011;39181;53.440;5.644;2023-03-13T16:37:37;66.63;;;9.57;;
53293;SDS011;39181;53.440;5.644;2023-03-13T16:40:10;50.00;;;8.25;;
53293;SDS011;39181;53.440;5.644;2023-03-13T16:42:41;53.45;;;8.13;;
53293;SDS011;39181;53.440;5.644;2023-03-13T16:45:07;53.03;;;9.15;;